createdAt,value
2023-05-12T00:00:58.259Z,654.95
2023-05-12T00:02:03.387Z,661.13
2023-05-12T00:03:06.002Z,629.75
2023-05-12T00:04:11.103Z,672.22
2023-05-12T00:05:15.911Z,649.85
2023-05-12T00:06:20.534Z,648.80
2023-05-12T00:07:22.790Z,654.22
2023-05-12T00:08:27.403Z,651.78
2023-05-12T00:09:29.598Z,637.90
2023-05-12T00:10:35.704Z,646.90
2023-05-12T00:11:38.332Z,630.50
2023-05-12T00:12:43.229Z,655.13
2023-05-12T00:13:45.404Z,654.17
2023-05-12T00:14:50.195Z,647.80
2023-05-12T00:15:52.408Z,635.90
2023-05-12T00:16:57.210Z,653.17
2023-05-12T00:17:59.279Z,634.65
2023-05-12T00:19:04.141Z,628.17
2023-05-12T00:20:07.544Z,635.45
2023-05-12T00:21:15.228Z,630.95
2023-05-12T00:22:17.392Z,632.55
2023-05-12T00:23:22.329Z,623.40
2023-05-12T00:24:24.374Z,644.15
2023-05-12T00:25:29.133Z,642.83
2023-05-12T00:26:31.211Z,640.78
2023-05-12T00:27:35.878Z,636.00
2023-05-12T00:28:37.898Z,628.42
2023-05-12T00:29:42.515Z,635.20
2023-05-12T00:30:44.645Z,641.17
2023-05-12T00:31:49.312Z,646.45
2023-05-12T00:32:51.501Z,629.35
2023-05-12T00:33:56.129Z,631.58
2023-05-12T00:34:58.271Z,634.08
2023-05-12T00:36:04.260Z,644.08
2023-05-12T00:37:09.110Z,637.55
2023-05-12T00:38:13.759Z,622.70
2023-05-12T00:39:15.815Z,637.92
2023-05-12T00:40:21.098Z,624.92
2023-05-12T00:41:23.332Z,636.70
2023-05-12T00:42:27.935Z,644.33
2023-05-12T00:43:29.996Z,637.40
2023-05-12T00:44:34.635Z,655.63
2023-05-12T00:45:37.244Z,642.33
2023-05-12T00:46:41.973Z,629.45
2023-05-12T00:47:46.445Z,631.80
2023-05-12T00:48:51.982Z,643.58
2023-05-12T00:49:54.103Z,638.72
2023-05-12T00:51:00.896Z,642.38
2023-05-12T00:52:03.742Z,677.85
2023-05-12T00:53:11.377Z,628.55
2023-05-12T00:54:13.670Z,650.45
2023-05-12T00:55:18.494Z,639.85
2023-05-12T00:56:20.659Z,638.05
2023-05-12T00:57:25.954Z,650.15
2023-05-12T00:58:28.005Z,643.53
2023-05-12T00:59:32.632Z,649.22
2023-05-12T01:00:34.728Z,643.20
2023-05-12T01:01:39.542Z,666.45
2023-05-12T01:02:42.097Z,675.13
2023-05-12T01:03:47.205Z,645.38
2023-05-12T01:04:50.037Z,630.75
2023-05-12T01:06:03.102Z,626.13
2023-05-12T01:07:10.117Z,614.63
2023-05-12T01:08:19.540Z,607.10
2023-05-12T01:09:22.190Z,641.83
2023-05-12T01:10:26.850Z,625.65
2023-05-12T01:11:28.877Z,653.35
2023-05-12T01:12:33.812Z,620.97
2023-05-12T01:13:36.320Z,642.22
2023-05-12T01:14:41.527Z,639.13
2023-05-12T01:15:48.118Z,636.60
2023-05-12T01:16:55.771Z,640.45
2023-05-12T01:18:02.458Z,634.38
2023-05-12T01:19:10.666Z,639.15
2023-05-12T01:20:15.495Z,632.45
2023-05-12T01:21:21.330Z,624.17
2023-05-12T01:22:24.328Z,621.38
2023-05-12T01:23:38.936Z,638.25
2023-05-12T01:24:46.877Z,618.38
2023-05-12T01:25:53.093Z,625.65
2023-05-12T01:26:58.554Z,639.42
2023-05-12T01:28:04.179Z,659.25
2023-05-12T01:29:07.857Z,649.53
2023-05-12T01:30:15.302Z,656.83
2023-05-12T01:31:20.254Z,649.20
2023-05-12T01:32:26.573Z,664.03
2023-05-12T01:33:29.219Z,667.47
2023-05-12T01:34:35.271Z,662.30
2023-05-12T01:35:37.311Z,668.40
2023-05-12T01:36:41.923Z,680.85
2023-05-12T01:37:44.004Z,645.20
2023-05-12T01:38:48.673Z,660.85
2023-05-12T01:39:50.813Z,668.55
2023-05-12T01:40:55.522Z,648.47
2023-05-12T01:42:00.281Z,651.42
2023-05-12T01:43:04.928Z,658.05
2023-05-12T01:44:07.047Z,654.67
2023-05-12T01:45:12.993Z,651.58
2023-05-12T01:46:15.185Z,654.30
2023-05-12T01:47:21.164Z,656.25
2023-05-12T01:48:23.247Z,637.90
2023-05-12T01:49:27.950Z,662.35
2023-05-12T01:50:30.042Z,657.63
2023-05-12T01:51:34.679Z,657.80
2023-05-12T01:52:37.033Z,652.85
2023-05-12T01:53:41.775Z,638.13
2023-05-12T01:54:43.818Z,644.75
2023-05-12T01:55:48.488Z,640.15
2023-05-12T01:56:50.674Z,651.08
2023-05-12T01:57:57.928Z,660.95
2023-05-12T01:58:59.950Z,648.20
2023-05-12T02:00:04.626Z,645.42
2023-05-12T02:01:06.679Z,657.08
2023-05-12T02:02:12.521Z,655.20
2023-05-12T02:03:14.851Z,640.90
2023-05-12T02:04:19.516Z,642.42
2023-05-12T02:05:22.422Z,666.22
2023-05-12T02:06:27.267Z,659.65
2023-05-12T02:07:29.342Z,649.00
2023-05-12T02:08:33.993Z,669.92
2023-05-12T02:09:36.010Z,638.92
2023-05-12T02:10:40.683Z,643.80
2023-05-12T02:11:42.757Z,657.47
2023-05-12T02:12:47.424Z,637.58
2023-05-12T02:13:52.460Z,631.80
2023-05-12T02:14:57.124Z,647.17
2023-05-12T02:15:59.197Z,643.30
2023-05-12T02:17:04.779Z,675.33
2023-05-12T02:18:08.075Z,644.75
2023-05-12T02:19:12.778Z,642.95
2023-05-12T02:20:15.019Z,634.05
2023-05-12T02:21:19.655Z,633.35
2023-05-12T02:22:21.677Z,633.45
2023-05-12T02:23:26.366Z,642.08
2023-05-12T02:24:28.477Z,658.58
2023-05-12T02:25:33.087Z,658.55
2023-05-12T02:26:35.135Z,660.30
2023-05-12T02:27:39.786Z,686.13
2023-05-12T02:28:41.824Z,667.17
2023-05-12T02:29:49.338Z,654.97
2023-05-12T02:30:53.264Z,659.17
2023-05-12T02:31:57.945Z,639.13
2023-05-12T02:33:00.130Z,636.28
2023-05-12T02:34:06.568Z,652.35
2023-05-12T02:35:10.316Z,626.50
2023-05-12T02:36:14.958Z,632.15
2023-05-12T02:37:16.990Z,625.85
2023-05-12T02:38:21.701Z,616.95
2023-05-12T02:39:23.879Z,626.55
2023-05-12T02:40:28.511Z,626.35
2023-05-12T02:41:30.531Z,656.40
2023-05-12T02:42:36.378Z,649.60
2023-05-12T02:43:38.432Z,632.08
2023-05-12T02:44:43.059Z,649.55
2023-05-12T02:45:47.940Z,631.58
2023-05-12T02:46:52.615Z,625.58
2023-05-12T02:47:54.732Z,620.80
2023-05-12T02:48:59.374Z,622.25
2023-05-12T02:50:01.428Z,619.42
2023-05-12T02:51:06.235Z,636.58
2023-05-12T02:52:08.651Z,625.67
2023-05-12T02:53:13.327Z,633.72
2023-05-12T02:54:15.503Z,627.85
2023-05-12T02:55:20.476Z,629.13
2023-05-12T02:56:22.769Z,620.42
2023-05-12T02:57:33.088Z,625.92
2023-05-12T02:58:35.465Z,648.85
2023-05-12T02:59:40.050Z,606.75
2023-05-12T03:00:42.096Z,535.83
2023-05-12T03:01:49.361Z,436.33
2023-05-12T03:02:51.825Z,412.73
2023-05-12T03:03:56.559Z,414.00
2023-05-12T03:04:58.650Z,331.13
2023-05-12T03:06:04.770Z,289.20
2023-05-12T03:07:07.341Z,294.95
2023-05-12T03:08:12.064Z,286.02
2023-05-12T03:09:14.174Z,322.52
2023-05-12T03:10:19.562Z,426.98
2023-05-12T03:11:22.403Z,456.42
2023-05-12T03:12:28.953Z,288.90
2023-05-12T03:13:31.040Z,387.02
2023-05-12T03:14:35.696Z,338.00
2023-05-12T03:15:37.716Z,384.92
2023-05-12T03:16:42.427Z,366.13
2023-05-12T03:17:47.134Z,424.08
2023-05-12T03:18:51.817Z,457.80
2023-05-12T03:19:53.947Z,413.05
2023-05-12T03:20:58.664Z,381.92
2023-05-12T03:22:00.893Z,387.52
2023-05-12T03:23:06.160Z,426.48
2023-05-12T03:24:09.036Z,394.27
2023-05-12T03:25:13.724Z,405.02
2023-05-12T03:26:15.775Z,413.40
2023-05-12T03:27:20.464Z,403.48
2023-05-12T03:28:24.884Z,431.60
2023-05-12T03:29:29.593Z,421.88
2023-05-12T03:30:33.231Z,425.58
2023-05-12T03:31:37.972Z,437.30
2023-05-12T03:32:40.160Z,462.00
2023-05-12T03:33:47.466Z,505.98
2023-05-12T03:34:49.528Z,517.85
2023-05-12T03:35:54.241Z,563.38
2023-05-12T03:36:58.852Z,505.38
2023-05-12T03:38:03.466Z,476.35
2023-05-12T03:39:05.575Z,476.58
2023-05-12T03:40:11.812Z,444.27
2023-05-12T03:41:13.875Z,448.45
2023-05-12T03:42:19.428Z,461.38
2023-05-12T03:43:21.459Z,468.17
2023-05-12T03:44:26.182Z,492.55
2023-05-12T03:45:28.319Z,504.95
2023-05-12T03:46:33.037Z,536.03
2023-05-12T03:47:36.156Z,550.28
2023-05-12T03:48:40.927Z,519.10
2023-05-12T03:49:45.552Z,514.83
2023-05-12T03:50:50.185Z,504.70
2023-05-12T03:51:52.285Z,496.98
2023-05-12T03:52:57.037Z,473.17
2023-05-12T03:53:59.079Z,467.15
2023-05-12T03:55:03.778Z,483.98
2023-05-12T03:56:06.830Z,491.38
2023-05-12T03:57:11.481Z,478.85
2023-05-12T03:58:13.518Z,496.58
2023-05-12T03:59:18.093Z,524.75
2023-05-12T04:00:23.534Z,512.72
2023-05-12T04:01:25.714Z,491.45
2023-05-12T04:02:30.365Z,492.45
2023-05-12T04:03:32.709Z,515.10
2023-05-12T04:04:37.425Z,510.50
2023-05-12T04:05:42.949Z,512.63
2023-05-12T04:06:47.662Z,523.20
2023-05-12T04:07:49.786Z,530.30
2023-05-12T04:08:54.381Z,562.38
2023-05-12T04:09:56.520Z,564.92
2023-05-12T04:11:02.556Z,576.92
2023-05-12T04:12:05.416Z,572.50
2023-05-12T04:13:10.307Z,564.47
2023-05-12T04:14:12.349Z,563.38
2023-05-12T04:15:17.441Z,614.55
2023-05-12T04:16:19.544Z,661.03
2023-05-12T04:17:24.239Z,653.85
2023-05-12T04:18:27.634Z,662.35
2023-05-12T04:19:32.275Z,657.42
2023-05-12T04:20:34.367Z,651.78
2023-05-12T04:21:41.572Z,667.45
2023-05-12T04:22:44.392Z,661.85
2023-05-12T04:23:49.088Z,665.33
2023-05-12T04:24:51.320Z,644.25
2023-05-12T04:25:56.650Z,644.08
2023-05-12T04:26:58.804Z,647.65
2023-05-12T04:28:03.478Z,648.92
2023-05-12T04:29:05.551Z,681.33
2023-05-12T04:30:11.679Z,724.80
2023-05-12T04:31:13.712Z,706.85
2023-05-12T04:32:18.535Z,708.78
2023-05-12T04:33:20.604Z,732.33
2023-05-12T04:34:25.284Z,731.33
2023-05-12T04:35:27.659Z,728.08
2023-05-12T04:36:32.320Z,732.95
2023-05-12T04:37:36.936Z,736.80
2023-05-12T04:38:41.877Z,738.05
2023-05-12T04:39:43.936Z,739.20
2023-05-12T04:40:48.673Z,732.10
2023-05-12T04:41:50.737Z,722.90
2023-05-12T04:42:55.386Z,722.53
2023-05-12T04:44:00.694Z,713.10
2023-05-12T04:45:05.861Z,713.80
2023-05-12T04:46:07.895Z,720.33
2023-05-12T04:47:12.547Z,748.53
2023-05-12T04:48:14.596Z,729.25
2023-05-12T04:49:19.212Z,742.60
2023-05-12T04:50:21.456Z,735.30
2023-05-12T04:51:26.188Z,737.92
2023-05-12T04:52:28.355Z,743.90
2023-05-12T04:53:36.468Z,742.60
2023-05-12T04:54:39.201Z,739.85
2023-05-12T04:55:46.022Z,742.15
2023-05-12T04:56:48.112Z,762.67
2023-05-12T04:57:52.802Z,763.58
2023-05-12T04:58:54.879Z,756.15
2023-05-12T04:59:59.644Z,753.78
2023-05-12T05:01:01.809Z,758.53
2023-05-12T05:02:06.923Z,756.05
2023-05-12T05:03:09.286Z,743.85
2023-05-12T05:04:14.009Z,751.58
2023-05-12T05:05:16.371Z,750.35
2023-05-12T05:06:21.053Z,748.45
2023-05-12T05:07:23.082Z,759.50
2023-05-12T05:08:27.710Z,745.97
2023-05-12T05:09:33.403Z,759.22
2023-05-12T05:10:39.684Z,759.72
2023-05-12T05:11:41.798Z,756.53
2023-05-12T05:12:46.423Z,767.78
2023-05-12T05:13:48.436Z,769.88
2023-05-12T05:14:53.135Z,774.13
2023-05-12T05:15:56.842Z,744.20
2023-05-12T05:17:01.626Z,757.42
2023-05-12T05:18:03.812Z,753.85
2023-05-12T05:19:19.547Z,751.67
2023-05-12T05:20:28.591Z,747.20
2023-05-12T05:21:34.770Z,738.50
2023-05-12T05:22:36.908Z,749.60
2023-05-12T05:23:41.936Z,769.70
2023-05-12T05:24:46.543Z,786.90
2023-05-12T05:25:51.484Z,769.55
2023-05-12T05:26:53.566Z,753.60
2023-05-12T05:27:58.815Z,777.85
2023-05-12T05:29:03.715Z,748.22
2023-05-12T05:30:08.052Z,763.83
2023-05-12T05:31:18.364Z,749.05
2023-05-12T05:32:20.522Z,788.42
2023-05-12T05:33:25.199Z,769.03
2023-05-12T05:34:27.220Z,789.00
2023-05-12T05:35:33.442Z,779.20
2023-05-12T05:36:35.708Z,768.17
2023-05-12T05:37:40.421Z,763.08
2023-05-12T05:38:42.779Z,796.95
2023-05-12T05:39:50.030Z,788.80
2023-05-12T05:40:53.623Z,808.60
2023-05-12T05:41:59.150Z,759.33
2023-05-12T05:43:01.230Z,794.50
2023-05-12T05:44:05.960Z,790.10
2023-05-12T05:45:09.626Z,778.97
2023-05-12T05:46:14.290Z,802.65
2023-05-12T05:47:16.362Z,792.28
2023-05-12T05:48:21.169Z,804.92
2023-05-12T05:49:23.364Z,797.97
2023-05-12T05:50:28.054Z,791.28
2023-05-12T05:51:30.158Z,786.65
2023-05-12T05:52:34.761Z,784.72
2023-05-12T05:53:39.418Z,795.25
2023-05-12T05:54:41.529Z,802.13
2023-05-12T05:55:49.269Z,812.00
2023-05-12T05:56:53.923Z,827.03
2023-05-12T05:57:55.921Z,791.92
2023-05-12T05:59:02.724Z,804.97
2023-05-12T06:00:06.202Z,808.30
2023-05-12T06:01:10.882Z,806.15
2023-05-12T06:02:13.046Z,807.70
2023-05-12T06:03:17.757Z,817.20
2023-05-12T06:04:19.882Z,795.83
2023-05-12T06:05:24.937Z,811.25
2023-05-12T06:06:27.012Z,812.47
2023-05-12T06:07:31.604Z,821.08
2023-05-12T06:08:36.228Z,810.05
2023-05-12T06:09:38.253Z,849.47
2023-05-12T06:10:42.952Z,818.90
2023-05-12T06:11:47.621Z,826.80
2023-05-12T06:12:53.193Z,845.25
2023-05-12T06:13:55.208Z,849.30
2023-05-12T06:14:59.840Z,818.35
2023-05-12T06:16:01.908Z,835.25
2023-05-12T06:17:06.619Z,847.55
2023-05-12T06:18:08.920Z,815.35
2023-05-12T06:19:13.604Z,829.80
2023-05-12T06:20:15.844Z,832.03
2023-05-12T06:21:20.465Z,839.75
2023-05-12T06:22:25.241Z,824.70
2023-05-12T06:23:27.502Z,845.72
2023-05-12T06:24:32.113Z,859.78
2023-05-12T06:25:36.806Z,833.13
2023-05-12T06:26:38.905Z,856.25
2023-05-12T06:27:46.189Z,845.95
2023-05-12T06:28:48.641Z,854.45
2023-05-12T06:29:54.537Z,842.50
2023-05-12T06:30:56.587Z,824.13
2023-05-12T06:32:01.248Z,812.03
2023-05-12T06:33:03.445Z,846.28
2023-05-12T06:34:08.064Z,825.95
2023-05-12T06:35:10.390Z,833.75
2023-05-12T06:36:15.056Z,837.40
2023-05-12T06:37:17.072Z,843.83
2023-05-12T06:38:21.718Z,839.40
2023-05-12T06:39:23.726Z,828.92
2023-05-12T06:40:28.335Z,832.08
2023-05-12T06:41:30.601Z,826.90
2023-05-12T06:42:35.235Z,827.22
2023-05-12T06:43:39.968Z,831.58
2023-05-12T06:44:45.814Z,844.13
2023-05-12T06:45:50.567Z,845.60
2023-05-12T06:46:52.668Z,843.85
2023-05-12T06:47:57.964Z,832.17
2023-05-12T06:49:03.230Z,818.85
2023-05-12T06:50:06.826Z,813.28
2023-05-12T06:51:11.472Z,826.05
2023-05-12T06:52:16.556Z,820.25
2023-05-12T06:53:22.823Z,830.67
2023-05-12T06:54:28.669Z,820.30
2023-05-12T06:55:33.325Z,817.13
2023-05-12T06:56:35.520Z,824.05
2023-05-12T06:57:40.290Z,824.50
2023-05-12T06:58:44.952Z,830.25
2023-05-12T06:59:49.595Z,844.90
2023-05-12T07:00:51.692Z,831.58
2023-05-12T07:01:56.458Z,829.15
2023-05-12T07:03:01.237Z,834.72
2023-05-12T07:04:03.420Z,809.22
2023-05-12T07:05:08.926Z,824.50
2023-05-12T07:06:11.296Z,823.10
2023-05-12T07:07:15.925Z,576.20
2023-05-12T07:08:18.009Z,815.10
2023-05-12T07:09:22.677Z,840.80
2023-05-12T07:10:24.707Z,827.20
2023-05-12T07:11:29.493Z,819.63
2023-05-12T07:12:32.665Z,810.47
2023-05-12T07:13:38.278Z,827.22
2023-05-12T07:14:42.898Z,810.17
2023-05-12T07:15:47.580Z,818.67
2023-05-12T07:16:49.778Z,802.35
2023-05-12T07:17:55.911Z,823.25
2023-05-12T07:18:58.104Z,816.88
2023-05-12T07:20:03.181Z,802.30
2023-05-12T07:21:08.251Z,803.42
2023-05-12T07:22:15.660Z,796.88
2023-05-12T07:23:20.435Z,866.17
2023-05-12T07:24:22.509Z,801.75
2023-05-12T07:25:28.458Z,807.88
2023-05-12T07:26:33.165Z,808.80
2023-05-12T07:27:35.305Z,802.13
2023-05-12T07:28:40.426Z,791.38
2023-05-12T07:29:45.080Z,803.97
2023-05-12T07:30:49.754Z,874.90
2023-05-12T07:31:51.924Z,785.17
2023-05-12T07:32:58.032Z,773.13
2023-05-12T07:34:02.715Z,914.70
2023-05-12T07:35:05.717Z,910.95
2023-05-12T07:36:11.228Z,916.85
2023-05-12T07:37:13.269Z,916.60
2023-05-12T07:38:17.944Z,919.78
2023-05-12T07:39:23.956Z,480.35
2023-05-12T07:40:28.730Z,740.08
2023-05-12T07:41:32.566Z,782.28
2023-05-12T07:42:38.533Z,912.83
2023-05-12T07:43:40.604Z,920.47
2023-05-12T07:44:48.024Z,934.10
2023-05-12T07:45:52.706Z,942.17
2023-05-12T07:46:54.842Z,944.78
2023-05-12T07:47:59.548Z,943.15
2023-05-12T07:49:04.259Z,940.25
2023-05-12T07:50:07.373Z,932.03
2023-05-12T07:51:12.220Z,797.17
2023-05-12T07:52:16.844Z,813.00
2023-05-12T07:53:18.896Z,848.85
2023-05-12T07:54:23.529Z,850.83
2023-05-12T07:55:28.413Z,867.95
2023-05-12T07:56:30.483Z,902.08
2023-05-12T07:57:35.094Z,889.88
2023-05-12T07:58:37.169Z,911.45
2023-05-12T07:59:42.290Z,956.97
2023-05-12T08:00:49.475Z,938.75
2023-05-12T08:01:51.594Z,942.88
2023-05-12T08:02:56.618Z,927.30
2023-05-12T08:03:59.010Z,882.17
2023-05-12T08:05:03.744Z,862.72
2023-05-12T08:06:07.446Z,867.85
2023-05-12T08:07:12.107Z,915.13
2023-05-12T08:08:16.902Z,936.83
2023-05-12T08:09:21.481Z,941.88
2023-05-12T08:10:29.806Z,945.17
2023-05-12T08:11:31.854Z,953.85
2023-05-12T08:12:36.888Z,957.33
2023-05-12T08:13:41.753Z,947.13
2023-05-12T08:14:43.745Z,962.17
2023-05-12T08:15:52.318Z,965.53
2023-05-12T08:16:54.425Z,986.60
2023-05-12T08:17:59.302Z,972.22
2023-05-12T08:19:01.442Z,979.90
2023-05-12T08:20:07.101Z,973.10
2023-05-12T08:21:09.462Z,963.72
2023-05-12T08:22:14.081Z,968.47
2023-05-12T08:23:19.439Z,985.22
2023-05-12T08:24:24.337Z,978.92
2023-05-12T08:25:28.023Z,980.80
2023-05-12T08:26:32.645Z,977.83
2023-05-12T08:27:37.294Z,988.53
2023-05-12T08:28:41.959Z,993.85
2023-05-12T08:29:44.017Z,999.60
2023-05-12T08:30:51.317Z,990.60
2023-05-12T08:31:53.589Z,958.05
2023-05-12T08:32:58.932Z,999.90
2023-05-12T08:34:10.378Z,999.90
2023-05-12T08:35:15.873Z,999.90
2023-05-12T08:36:20.529Z,999.90
2023-05-12T08:37:22.695Z,999.90
2023-05-12T08:38:27.420Z,999.90
2023-05-12T08:39:31.179Z,998.40
2023-05-12T08:40:49.950Z,159.52
2023-05-12T08:42:02.491Z,999.90
2023-05-12T08:43:10.407Z,977.83
2023-05-12T08:44:16.023Z,993.92
2023-05-12T08:45:18.863Z,982.55
2023-05-12T08:46:27.027Z,991.00
2023-05-12T08:47:29.411Z,992.78
2023-05-12T08:48:37.544Z,986.85
2023-05-12T08:49:40.626Z,981.88
2023-05-12T08:50:46.541Z,988.55
2023-05-12T08:51:57.678Z,104.50
2023-05-12T08:53:03.262Z,926.55
2023-05-12T08:54:07.991Z,35.10
2023-05-12T08:55:13.631Z,20.45
2023-05-12T08:57:29.608Z,434.67
2023-05-12T08:58:41.084Z,17.10
2023-05-12T08:59:47.201Z,18.38
2023-05-12T09:00:50.984Z,18.90
2023-05-12T09:01:59.249Z,23.63
2023-05-12T09:03:02.590Z,32.67
2023-05-12T09:04:07.875Z,22.80
2023-05-12T09:05:10.481Z,18.95
2023-05-12T09:06:16.146Z,22.10
2023-05-12T09:07:19.221Z,19.20
2023-05-12T09:08:24.392Z,19.65
2023-05-12T09:09:29.800Z,17.92
2023-05-12T09:10:35.787Z,19.38
2023-05-12T09:11:40.717Z,18.52
2023-05-12T09:12:46.415Z,20.50
2023-05-12T09:13:54.347Z,26.63
2023-05-12T09:15:08.022Z,22.80
2023-05-12T09:16:13.069Z,21.27
2023-05-12T09:17:20.346Z,19.77
2023-05-12T09:18:22.486Z,19.80
2023-05-12T09:19:27.174Z,21.45
2023-05-12T09:20:31.766Z,17.80
2023-05-12T09:21:37.537Z,20.38
2023-05-12T09:22:42.252Z,19.13
2023-05-12T09:23:53.261Z,31.67
2023-05-12T09:24:57.883Z,23.73
2023-05-12T09:26:01.426Z,26.00
2023-05-12T09:27:07.243Z,30.00
2023-05-12T09:28:09.732Z,22.10
2023-05-12T09:29:21.217Z,20.45
2023-05-12T09:30:38.344Z,27.30
2023-05-12T09:31:50.059Z,717.65
2023-05-12T09:34:10.851Z,19.95
2023-05-12T09:35:15.629Z,18.30
2023-05-12T09:36:18.751Z,20.92
2023-05-12T09:37:23.398Z,20.30
2023-05-12T09:38:25.394Z,21.02
2023-05-12T09:39:30.447Z,20.08
2023-05-12T09:40:32.510Z,22.20
2023-05-12T09:41:38.997Z,21.52
2023-05-12T09:42:45.431Z,23.13
2023-05-12T09:43:47.548Z,23.13
2023-05-12T09:44:53.085Z,23.08
2023-05-12T09:45:55.821Z,24.38
2023-05-12T09:47:10.454Z,27.30
2023-05-12T09:48:15.466Z,21.15
2023-05-12T09:49:25.198Z,19.38
2023-05-12T09:50:30.583Z,23.92
2023-05-12T09:51:39.589Z,19.35
2023-05-12T09:52:41.641Z,19.63
2023-05-12T09:53:47.284Z,23.63
2023-05-12T09:54:49.294Z,17.25
2023-05-12T09:55:54.068Z,16.75
2023-05-12T09:56:59.202Z,21.65
2023-05-12T09:58:05.253Z,30.20
2023-05-12T09:59:13.382Z,23.95
2023-05-12T10:00:34.537Z,17.60
2023-05-12T10:01:43.318Z,28.00
2023-05-12T10:02:49.406Z,23.10
2023-05-12T10:03:58.629Z,20.00
2023-05-12T10:05:03.473Z,25.00
2023-05-12T10:06:10.909Z,23.05
2023-05-12T10:07:17.566Z,24.92
2023-05-12T10:08:26.643Z,18.75
2023-05-12T10:09:34.200Z,18.02
2023-05-12T10:10:39.748Z,19.40
2023-05-12T10:11:42.719Z,17.67
2023-05-12T10:12:49.149Z,17.90
2023-05-12T10:13:52.437Z,21.73
2023-05-12T10:14:58.126Z,21.35
2023-05-12T10:16:00.815Z,23.13
2023-05-12T10:17:05.861Z,27.00
2023-05-12T10:18:08.729Z,18.50
2023-05-12T10:19:16.813Z,18.20
2023-05-12T10:20:19.230Z,19.15
2023-05-12T10:21:24.838Z,27.80
2023-05-12T10:22:28.334Z,18.13
2023-05-12T10:23:35.468Z,27.10
2023-05-12T10:24:40.984Z,22.58
2023-05-12T10:25:46.275Z,21.13
2023-05-12T10:26:48.388Z,22.77
2023-05-12T10:27:54.360Z,26.85
2023-05-12T10:28:59.733Z,22.08
2023-05-12T10:30:02.873Z,26.77
2023-05-12T10:31:09.993Z,27.17
2023-05-12T10:32:12.163Z,20.77
2023-05-12T10:33:16.885Z,21.77
2023-05-12T10:34:21.847Z,21.48
2023-05-12T10:35:35.577Z,19.95
2023-05-12T10:36:49.836Z,20.08
2023-05-12T10:37:51.940Z,19.40
2023-05-12T10:38:56.879Z,23.67
2023-05-12T10:40:01.260Z,29.63
2023-05-12T10:41:09.300Z,23.73
2023-05-12T10:42:11.710Z,20.17
2023-05-12T10:43:24.899Z,22.65
2023-05-12T10:44:30.582Z,21.83
2023-05-12T10:45:36.927Z,24.70
2023-05-12T10:46:41.919Z,20.42
2023-05-12T10:47:45.196Z,20.00
2023-05-12T10:48:55.982Z,23.42
2023-05-12T10:50:00.665Z,26.40
2023-05-12T10:51:10.524Z,26.17
2023-05-12T10:52:16.272Z,22.90
2023-05-12T10:53:38.007Z,24.65
2023-05-12T10:54:50.372Z,24.85
2023-05-12T10:55:57.275Z,20.80
2023-05-12T10:57:03.547Z,25.08
2023-05-12T10:58:07.780Z,28.08
2023-05-12T11:01:10.130Z,27.48
2023-05-12T11:02:19.798Z,23.40
2023-05-12T11:03:25.810Z,21.15
2023-05-12T11:04:44.708Z,28.15
2023-05-12T11:05:59.454Z,23.52
2023-05-12T11:07:08.205Z,26.67
2023-05-12T11:08:11.587Z,24.35
2023-05-12T11:09:17.858Z,22.58
2023-05-12T11:10:23.713Z,24.33
2023-05-12T11:11:27.106Z,20.33
2023-05-12T11:12:35.593Z,22.80
2023-05-12T11:13:40.856Z,26.20
2023-05-12T11:14:44.291Z,22.42
2023-05-12T11:15:50.473Z,20.58
2023-05-12T11:16:53.797Z,20.33
2023-05-12T11:17:58.480Z,22.17
2023-05-12T11:19:04.679Z,21.90
2023-05-12T11:20:12.182Z,22.83
2023-05-12T11:21:17.227Z,30.40
2023-05-12T11:22:23.069Z,22.80
2023-05-12T11:23:29.218Z,18.58
2023-05-12T11:24:31.287Z,21.70
2023-05-12T11:25:36.023Z,25.00
2023-05-12T11:26:40.979Z,602.08
2023-05-12T11:27:50.885Z,994.22
2023-05-12T11:28:52.986Z,985.85
2023-05-12T11:30:02.046Z,239.80
2023-05-12T11:33:06.092Z,20.63
2023-05-12T11:34:13.192Z,622.90
2023-05-12T11:35:20.451Z,414.40
2023-05-12T11:36:25.182Z,19.20
2023-05-12T11:37:31.254Z,28.13
2023-05-12T11:38:34.417Z,433.83
2023-05-12T11:39:41.029Z,999.90
2023-05-12T11:40:45.311Z,999.60
2023-05-12T11:41:59.278Z,999.90
2023-05-12T11:43:16.266Z,736.63
2023-05-12T11:44:23.660Z,25.77
2023-05-12T11:45:28.880Z,23.85
2023-05-12T11:46:34.996Z,22.90
2023-05-12T11:47:38.001Z,21.33
2023-05-12T11:48:45.917Z,15.55
2023-05-12T11:49:56.410Z,18.38
2023-05-12T11:51:49.543Z,25.35
2023-05-12T11:53:16.955Z,15.15
2023-05-12T11:54:34.655Z,22.88
2023-05-12T11:55:43.613Z,27.58
2023-05-12T11:56:58.242Z,14.85
2023-05-12T11:58:10.118Z,18.40
2023-05-12T11:59:34.369Z,16.83
2023-05-12T12:00:45.529Z,41.88
2023-05-12T12:01:50.932Z,22.52
2023-05-12T12:02:53.673Z,22.02
2023-05-12T12:04:19.649Z,19.23
2023-05-12T12:05:45.142Z,18.52
2023-05-12T12:06:52.242Z,17.92
2023-05-12T12:08:09.747Z,17.38
2023-05-12T12:09:21.081Z,17.73
2023-05-12T12:10:25.476Z,18.30
2023-05-12T12:11:40.545Z,19.15
2023-05-12T12:12:52.707Z,16.92
2023-05-12T12:14:08.201Z,17.13
2023-05-12T12:15:16.097Z,25.65
2023-05-12T12:16:26.042Z,17.48
2023-05-12T12:17:47.906Z,19.85
2023-05-12T12:19:21.188Z,18.65
2023-05-12T12:20:48.265Z,18.27
2023-05-12T12:21:59.986Z,14.80
2023-05-12T12:23:07.786Z,23.17
2023-05-12T12:24:23.903Z,25.60
2023-05-12T12:25:38.198Z,22.90
2023-05-12T12:26:46.973Z,25.33
2023-05-12T12:28:01.407Z,24.65
2023-05-12T12:31:26.534Z,32.53
2023-05-12T12:32:46.848Z,18.15
2023-05-12T12:33:52.452Z,19.00
2023-05-12T12:35:07.000Z,21.13
2023-05-12T12:36:29.132Z,80.38
2023-05-12T12:38:54.428Z,21.65
2023-05-12T12:40:00.569Z,20.17
2023-05-12T12:41:10.507Z,18.20
2023-05-12T12:42:16.749Z,20.77
2023-05-12T12:43:22.636Z,17.52
2023-05-12T12:44:26.052Z,19.90
2023-05-12T12:45:33.362Z,19.45
2023-05-12T12:46:39.394Z,19.70
2023-05-12T12:47:44.876Z,24.17
2023-05-12T12:48:49.586Z,20.63
2023-05-12T12:49:56.137Z,23.60
2023-05-12T12:51:02.948Z,19.27
2023-05-12T12:52:09.356Z,25.33
2023-05-12T12:53:17.527Z,22.52
2023-05-12T12:54:27.946Z,16.65
2023-05-12T12:55:34.601Z,15.48
2023-05-12T12:56:38.633Z,18.90
2023-05-12T12:57:44.933Z,17.30
2023-05-12T12:58:48.304Z,17.92
2023-05-12T12:59:54.536Z,15.88
2023-05-12T13:01:02.937Z,15.52
2023-05-12T13:02:14.825Z,18.05
2023-05-12T13:03:21.028Z,18.33
2023-05-12T13:04:25.379Z,18.92
2023-05-12T13:05:37.943Z,16.58
2023-05-12T13:06:47.789Z,18.00
2023-05-12T13:08:03.168Z,17.85
2023-05-12T13:09:07.812Z,26.15
2023-05-12T13:10:42.416Z,28.85
2023-05-12T13:11:47.729Z,15.82
2023-05-12T13:12:59.174Z,19.05
2023-05-12T13:14:07.580Z,17.92
2023-05-12T13:15:20.604Z,20.30
2023-05-12T13:16:38.022Z,15.63
2023-05-12T13:18:10.477Z,14.90
2023-05-12T13:19:29.810Z,20.02
2023-05-12T13:20:50.385Z,14.80
2023-05-12T13:22:02.945Z,14.50
2023-05-12T13:23:13.028Z,13.15
2023-05-12T13:24:20.312Z,19.55
2023-05-12T13:25:31.400Z,18.48
2023-05-12T13:26:42.910Z,16.83
2023-05-12T13:27:47.966Z,14.93
2023-05-12T13:28:50.700Z,16.88
2023-05-12T13:29:58.643Z,15.95
2023-05-12T13:31:01.965Z,11.55
2023-05-12T13:32:10.401Z,13.63
2023-05-12T13:33:13.349Z,18.55
2023-05-12T13:34:19.949Z,18.17
2023-05-12T13:35:23.759Z,17.15
2023-05-12T13:36:34.785Z,18.95
2023-05-12T13:37:38.868Z,11.65
2023-05-12T13:38:45.856Z,15.30
2023-05-12T13:39:51.058Z,12.98
2023-05-12T13:40:54.132Z,12.25
2023-05-12T13:42:04.977Z,12.90
2023-05-12T13:43:13.960Z,14.50
2023-05-12T13:44:28.588Z,13.80
2023-05-12T13:45:33.097Z,18.08
2023-05-12T13:46:42.812Z,21.02
2023-05-12T13:47:57.176Z,13.55
2023-05-12T13:49:03.138Z,14.73
2023-05-12T13:50:15.993Z,12.43
2023-05-12T13:51:35.362Z,14.43
2023-05-12T13:52:44.886Z,11.32
2023-05-12T13:53:53.587Z,17.77
2023-05-12T13:55:03.576Z,13.10
2023-05-12T13:56:27.196Z,13.98
2023-05-12T13:57:41.887Z,9.63
2023-05-12T13:58:49.011Z,48.20